sensor_id;sensor_type;location;lat;lon;timestamp;P1;durP1;ratioP1;P2;durP2;ratioP2
16506;SDS011;8366;51.020;7.642;2022-12-07T00:01:27;18.73;;;12.40;;
16506;SDS011;8366;51.020;7.642;2022-12-07T00:03:57;18.93;;;11.53;;
16506;SDS011;8366;51.020;7.642;2022-12-07T00:06:29;17.83;;;12.53;;
16506;SDS011;8366;51.020;7.642;2022-12-07T00:08:57;19.37;;;12.30;;
16506;SDS011;8366;51.020;7.642;2022-12-07T00:11:24;18.17;;;12.20;;
16506;SDS011;8366;51.020;7.642;2022-12-07T00:13:51;18.67;;;13.00;;
16506;SDS011;8366;51.020;7.642;2022-12-07T00:16:18;18.40;;;12.97;;
16506;SDS011;8366;51.020;7.642;2022-12-07T00:18:46;19.20;;;13.03;;
16506;SDS011;8366;51.020;7.642;2022-12-07T00:21:15;18.57;;;12.93;;
16506;SDS011;8366;51.020;7.642;2022-12-07T00:23:43;19.73;;;12.87;;
16506;SDS011;8366;51.020;7.642;2022-12-07T00:26:11;21.60;;;13.17;;
16506;SDS011;8366;51.020;7.642;2022-12-07T00:28:38;19.60;;;12.70;;
16506;SDS011;8366;51.020;7.642;2022-12-07T00:31:06;22.27;;;13.37;;
16506;SDS011;8366;51.020;7.642;2022-12-07T00:33:34;19.43;;;12.50;;
16506;SDS011;8366;51.020;7.642;2022-12-07T00:36:01;21.73;;;13.17;;
16506;SDS011;8366;51.020;7.642;2022-12-07T00:38:31;19.30;;;13.03;;
16506;SDS011;8366;51.020;7.642;2022-12-07T00:40:59;19.23;;;13.47;;
16506;SDS011;8366;51.020;7.642;2022-12-07T00:43:27;20.10;;;13.23;;
16506;SDS011;8366;51.020;7.642;2022-12-07T00:45:54;18.43;;;12.80;;
16506;SDS011;8366;51.020;7.642;2022-12-07T00:48:21;20.00;;;12.87;;
16506;SDS011;8366;51.020;7.642;2022-12-07T00:50:47;20.33;;;12.87;;
16506;SDS011;8366;51.020;7.642;2022-12-07T00:53:14;17.37;;;11.63;;
16506;SDS011;8366;51.020;7.642;2022-12-07T00:55:42;19.70;;;13.37;;
16506;SDS011;8366;51.020;7.642;2022-12-07T00:58:09;20.13;;;13.40;;
16506;SDS011;8366;51.020;7.642;2022-12-07T01:00:36;20.77;;;13.60;;
16506;SDS011;8366;51.020;7.642;2022-12-07T01:03:04;22.03;;;13.50;;
16506;SDS011;8366;51.020;7.642;2022-12-07T01:05:30;24.97;;;14.53;;
16506;SDS011;8366;51.020;7.642;2022-12-07T01:07:57;21.87;;;14.30;;
16506;SDS011;8366;51.020;7.642;2022-12-07T01:10:23;21.77;;;13.93;;
16506;SDS011;8366;51.020;7.642;2022-12-07T01:12:51;21.13;;;14.37;;
16506;SDS011;8366;51.020;7.642;2022-12-07T01:15:18;22.10;;;13.93;;
16506;SDS011;8366;51.020;7.642;2022-12-07T01:17:44;23.07;;;14.40;;
16506;SDS011;8366;51.020;7.642;2022-12-07T01:20:11;21.67;;;14.07;;
16506;SDS011;8366;51.020;7.642;2022-12-07T01:22:39;20.40;;;13.37;;
16506;SDS011;8366;51.020;7.642;2022-12-07T01:25:06;21.03;;;14.33;;
16506;SDS011;8366;51.020;7.642;2022-12-07T01:27:34;25.27;;;14.43;;
16506;SDS011;8366;51.020;7.642;2022-12-07T01:30:03;21.50;;;14.53;;
16506;SDS011;8366;51.020;7.642;2022-12-07T01:32:31;22.07;;;13.70;;
16506;SDS011;8366;51.020;7.642;2022-12-07T01:34:57;21.27;;;13.87;;
16506;SDS011;8366;51.020;7.642;2022-12-07T01:37:24;24.27;;;14.93;;
16506;SDS011;8366;51.020;7.642;2022-12-07T01:39:50;19.90;;;13.53;;
16506;SDS011;8366;51.020;7.642;2022-12-07T01:42:17;21.10;;;14.03;;
16506;SDS011;8366;51.020;7.642;2022-12-07T01:48:03;19.60;;;12.87;;
16506;SDS011;8366;51.020;7.642;2022-12-07T01:50:30;18.67;;;13.60;;
16506;SDS011;8366;51.020;7.642;2022-12-07T01:52:57;19.77;;;13.47;;
16506;SDS011;8366;51.020;7.642;2022-12-07T01:55:25;19.73;;;13.10;;
16506;SDS011;8366;51.020;7.642;2022-12-07T01:57:52;19.93;;;13.87;;
16506;SDS011;8366;51.020;7.642;2022-12-07T02:00:20;20.90;;;13.77;;
16506;SDS011;8366;51.020;7.642;2022-12-07T02:02:47;21.50;;;13.57;;
16506;SDS011;8366;51.020;7.642;2022-12-07T02:05:16;22.13;;;13.50;;
16506;SDS011;8366;51.020;7.642;2022-12-07T02:07:43;19.87;;;12.70;;
16506;SDS011;8366;51.020;7.642;2022-12-07T02:10:14;24.23;;;13.73;;
16506;SDS011;8366;51.020;7.642;2022-12-07T02:12:41;20.87;;;14.23;;
16506;SDS011;8366;51.020;7.642;2022-12-07T02:15:09;20.87;;;13.47;;
16506;SDS011;8366;51.020;7.642;2022-12-07T02:17:37;20.90;;;13.03;;
16506;SDS011;8366;51.020;7.642;2022-12-07T02:20:11;19.40;;;12.70;;
16506;SDS011;8366;51.020;7.642;2022-12-07T02:22:58;20.13;;;12.33;;
16506;SDS011;8366;51.020;7.642;2022-12-07T02:25:33;22.27;;;13.70;;
16506;SDS011;8366;51.020;7.642;2022-12-07T02:28:12;22.03;;;13.77;;
16506;SDS011;8366;51.020;7.642;2022-12-07T02:30:45;22.00;;;14.03;;
16506;SDS011;8366;51.020;7.642;2022-12-07T02:33:14;21.37;;;14.00;;
16506;SDS011;8366;51.020;7.642;2022-12-07T02:35:43;20.13;;;12.73;;
16506;SDS011;8366;51.020;7.642;2022-12-07T02:38:13;19.67;;;12.30;;
16506;SDS011;8366;51.020;7.642;2022-12-07T02:40:43;19.87;;;12.50;;
16506;SDS011;8366;51.020;7.642;2022-12-07T02:43:12;20.93;;;13.10;;
16506;SDS011;8366;51.020;7.642;2022-12-07T02:45:42;19.17;;;12.60;;
16506;SDS011;8366;51.020;7.642;2022-12-07T02:48:12;19.23;;;12.23;;
16506;SDS011;8366;51.020;7.642;2022-12-07T02:50:44;18.77;;;12.13;;
16506;SDS011;8366;51.020;7.642;2022-12-07T02:55:55;19.03;;;12.20;;
16506;SDS011;8366;51.020;7.642;2022-12-07T02:58:23;19.90;;;12.97;;
16506;SDS011;8366;51.020;7.642;2022-12-07T03:01:01;20.17;;;12.80;;
16506;SDS011;8366;51.020;7.642;2022-12-07T03:03:41;18.67;;;12.67;;
16506;SDS011;8366;51.020;7.642;2022-12-07T03:06:11;19.97;;;12.60;;
16506;SDS011;8366;51.020;7.642;2022-12-07T03:08:44;19.57;;;13.33;;
16506;SDS011;8366;51.020;7.642;2022-12-07T03:11:15;20.73;;;13.13;;
16506;SDS011;8366;51.020;7.642;2022-12-07T03:13:45;19.60;;;13.03;;
16506;SDS011;8366;51.020;7.642;2022-12-07T03:16:15;21.23;;;12.97;;
16506;SDS011;8366;51.020;7.642;2022-12-07T03:18:45;20.23;;;12.90;;
16506;SDS011;8366;51.020;7.642;2022-12-07T03:21:14;21.27;;;13.57;;
16506;SDS011;8366;51.020;7.642;2022-12-07T03:23:42;21.00;;;12.93;;
16506;SDS011;8366;51.020;7.642;2022-12-07T03:26:11;25.00;;;13.77;;
16506;SDS011;8366;51.020;7.642;2022-12-07T03:28:39;21.00;;;13.57;;
16506;SDS011;8366;51.020;7.642;2022-12-07T03:31:10;21.67;;;14.13;;
16506;SDS011;8366;51.020;7.642;2022-12-07T03:33:41;22.33;;;14.30;;
16506;SDS011;8366;51.020;7.642;2022-12-07T03:36:12;22.03;;;14.20;;
16506;SDS011;8366;51.020;7.642;2022-12-07T03:38:42;23.73;;;14.60;;
16506;SDS011;8366;51.020;7.642;2022-12-07T03:41:12;25.23;;;15.37;;
16506;SDS011;8366;51.020;7.642;2022-12-07T03:43:42;22.80;;;14.30;;
16506;SDS011;8366;51.020;7.642;2022-12-07T03:46:11;24.07;;;15.13;;
16506;SDS011;8366;51.020;7.642;2022-12-07T03:48:46;22.73;;;14.87;;
16506;SDS011;8366;51.020;7.642;2022-12-07T03:51:21;20.80;;;14.03;;
16506;SDS011;8366;51.020;7.642;2022-12-07T03:53:52;22.70;;;12.87;;
16506;SDS011;8366;51.020;7.642;2022-12-07T03:56:21;25.53;;;16.40;;
16506;SDS011;8366;51.020;7.642;2022-12-07T03:58:48;27.43;;;16.70;;
16506;SDS011;8366;51.020;7.642;2022-12-07T04:01:15;27.07;;;16.03;;
16506;SDS011;8366;51.020;7.642;2022-12-07T04:03:43;28.10;;;16.67;;
16506;SDS011;8366;51.020;7.642;2022-12-07T04:06:11;27.20;;;15.90;;
16506;SDS011;8366;51.020;7.642;2022-12-07T04:08:38;25.73;;;16.00;;
16506;SDS011;8366;51.020;7.642;2022-12-07T04:11:04;29.40;;;16.63;;
16506;SDS011;8366;51.020;7.642;2022-12-07T04:13:31;25.27;;;15.33;;
16506;SDS011;8366;51.020;7.642;2022-12-07T04:16:18;25.47;;;15.53;;
16506;SDS011;8366;51.020;7.642;2022-12-07T04:18:44;27.33;;;15.47;;
16506;SDS011;8366;51.020;7.642;2022-12-07T04:21:12;23.57;;;14.93;;
16506;SDS011;8366;51.020;7.642;2022-12-07T04:23:39;25.80;;;15.27;;
16506;SDS011;8366;51.020;7.642;2022-12-07T04:26:05;27.87;;;16.87;;
16506;SDS011;8366;51.020;7.642;2022-12-07T04:28:32;28.47;;;16.30;;
16506;SDS011;8366;51.020;7.642;2022-12-07T04:30:58;25.80;;;16.13;;
16506;SDS011;8366;51.020;7.642;2022-12-07T04:33:25;27.60;;;17.30;;
16506;SDS011;8366;51.020;7.642;2022-12-07T04:35:51;29.13;;;16.97;;
16506;SDS011;8366;51.020;7.642;2022-12-07T04:38:19;23.87;;;13.97;;
16506;SDS011;8366;51.020;7.642;2022-12-07T04:40:46;22.90;;;14.70;;
16506;SDS011;8366;51.020;7.642;2022-12-07T04:43:12;25.27;;;15.80;;
16506;SDS011;8366;51.020;7.642;2022-12-07T04:45:39;24.53;;;15.10;;
16506;SDS011;8366;51.020;7.642;2022-12-07T04:48:05;25.60;;;15.07;;
16506;SDS011;8366;51.020;7.642;2022-12-07T04:50:32;23.97;;;14.90;;
16506;SDS011;8366;51.020;7.642;2022-12-07T04:52:58;24.53;;;14.80;;
16506;SDS011;8366;51.020;7.642;2022-12-07T04:55:26;29.17;;;15.03;;
16506;SDS011;8366;51.020;7.642;2022-12-07T04:57:52;26.00;;;15.13;;
16506;SDS011;8366;51.020;7.642;2022-12-07T05:00:19;24.50;;;14.70;;
16506;SDS011;8366;51.020;7.642;2022-12-07T05:02:46;27.27;;;16.13;;
16506;SDS011;8366;51.020;7.642;2022-12-07T05:05:12;28.43;;;14.97;;
16506;SDS011;8366;51.020;7.642;2022-12-07T05:07:39;26.00;;;15.00;;
16506;SDS011;8366;51.020;7.642;2022-12-07T05:10:05;26.33;;;15.83;;
16506;SDS011;8366;51.020;7.642;2022-12-07T05:12:34;26.07;;;14.73;;
16506;SDS011;8366;51.020;7.642;2022-12-07T05:15:01;27.03;;;16.57;;
16506;SDS011;8366;51.020;7.642;2022-12-07T05:17:27;27.27;;;16.20;;
16506;SDS011;8366;51.020;7.642;2022-12-07T05:19:54;28.40;;;15.93;;
16506;SDS011;8366;51.020;7.642;2022-12-07T05:22:20;27.90;;;15.60;;
16506;SDS011;8366;51.020;7.642;2022-12-07T05:24:47;26.57;;;14.50;;
16506;SDS011;8366;51.020;7.642;2022-12-07T05:27:13;26.30;;;14.57;;
16506;SDS011;8366;51.020;7.642;2022-12-07T05:29:41;27.17;;;15.17;;
16506;SDS011;8366;51.020;7.642;2022-12-07T05:32:08;26.60;;;14.37;;
16506;SDS011;8366;51.020;7.642;2022-12-07T05:34:34;25.07;;;14.57;;
16506;SDS011;8366;51.020;7.642;2022-12-07T05:37:01;23.50;;;15.07;;
16506;SDS011;8366;51.020;7.642;2022-12-07T05:39:27;23.87;;;15.03;;
16506;SDS011;8366;51.020;7.642;2022-12-07T05:41:53;26.80;;;14.83;;
16506;SDS011;8366;51.020;7.642;2022-12-07T05:44:38;27.07;;;15.07;;
16506;SDS011;8366;51.020;7.642;2022-12-07T05:47:06;25.50;;;15.20;;
16506;SDS011;8366;51.020;7.642;2022-12-07T05:49:33;30.00;;;15.00;;
16506;SDS011;8366;51.020;7.642;2022-12-07T05:52:03;28.00;;;15.50;;
16506;SDS011;8366;51.020;7.642;2022-12-07T05:54:29;27.17;;;15.27;;
16506;SDS011;8366;51.020;7.642;2022-12-07T05:56:56;29.50;;;14.40;;
16506;SDS011;8366;51.020;7.642;2022-12-07T05:59:23;28.57;;;16.07;;
16506;SDS011;8366;51.020;7.642;2022-12-07T06:01:48;27.10;;;15.60;;
16506;SDS011;8366;51.020;7.642;2022-12-07T06:04:17;27.07;;;13.30;;
16506;SDS011;8366;51.020;7.642;2022-12-07T06:06:43;23.77;;;12.83;;
16506;SDS011;8366;51.020;7.642;2022-12-07T06:09:10;24.03;;;13.80;;
16506;SDS011;8366;51.020;7.642;2022-12-07T06:11:37;21.43;;;12.43;;
16506;SDS011;8366;51.020;7.642;2022-12-07T06:14:21;22.20;;;11.40;;
16506;SDS011;8366;51.020;7.642;2022-12-07T06:16:47;20.33;;;10.90;;
16506;SDS011;8366;51.020;7.642;2022-12-07T06:19:14;22.60;;;12.20;;
16506;SDS011;8366;51.020;7.642;2022-12-07T06:21:42;22.10;;;12.03;;
16506;SDS011;8366;51.020;7.642;2022-12-07T06:24:09;21.90;;;11.47;;
16506;SDS011;8366;51.020;7.642;2022-12-07T06:26:37;20.10;;;12.03;;
16506;SDS011;8366;51.020;7.642;2022-12-07T06:29:03;20.77;;;12.13;;
16506;SDS011;8366;51.020;7.642;2022-12-07T06:31:30;24.77;;;12.97;;
16506;SDS011;8366;51.020;7.642;2022-12-07T06:33:57;22.57;;;11.97;;
16506;SDS011;8366;51.020;7.642;2022-12-07T06:36:24;21.90;;;12.40;;
16506;SDS011;8366;51.020;7.642;2022-12-07T06:38:52;22.10;;;12.33;;
16506;SDS011;8366;51.020;7.642;2022-12-07T06:41:18;23.97;;;12.93;;
16506;SDS011;8366;51.020;7.642;2022-12-07T06:43:45;26.30;;;14.20;;
16506;SDS011;8366;51.020;7.642;2022-12-07T06:46:12;24.17;;;14.20;;
16506;SDS011;8366;51.020;7.642;2022-12-07T06:48:39;22.67;;;13.30;;
16506;SDS011;8366;51.020;7.642;2022-12-07T06:51:05;20.63;;;12.27;;
16506;SDS011;8366;51.020;7.642;2022-12-07T06:53:32;25.67;;;13.20;;
16506;SDS011;8366;51.020;7.642;2022-12-07T06:56:00;26.07;;;13.20;;
16506;SDS011;8366;51.020;7.642;2022-12-07T06:58:26;22.43;;;13.40;;
16506;SDS011;8366;51.020;7.642;2022-12-07T07:00:53;22.87;;;13.30;;
16506;SDS011;8366;51.020;7.642;2022-12-07T07:03:19;21.00;;;12.57;;
16506;SDS011;8366;51.020;7.642;2022-12-07T07:05:46;19.93;;;11.43;;
16506;SDS011;8366;51.020;7.642;2022-12-07T07:08:12;19.87;;;11.30;;
16506;SDS011;8366;51.020;7.642;2022-12-07T07:10:39;22.67;;;12.03;;
16506;SDS011;8366;51.020;7.642;2022-12-07T07:13:07;20.77;;;10.90;;
16506;SDS011;8366;51.020;7.642;2022-12-07T07:15:34;18.97;;;11.63;;
16506;SDS011;8366;51.020;7.642;2022-12-07T07:18:01;22.17;;;11.47;;
16506;SDS011;8366;51.020;7.642;2022-12-07T07:20:29;23.17;;;11.93;;
16506;SDS011;8366;51.020;7.642;2022-12-07T07:22:55;23.77;;;11.83;;
16506;SDS011;8366;51.020;7.642;2022-12-07T07:25:22;20.90;;;12.77;;
16506;SDS011;8366;51.020;7.642;2022-12-07T07:27:49;21.50;;;11.03;;
16506;SDS011;8366;51.020;7.642;2022-12-07T07:30:17;20.57;;;11.43;;
16506;SDS011;8366;51.020;7.642;2022-12-07T07:32:43;21.43;;;12.43;;
16506;SDS011;8366;51.020;7.642;2022-12-07T07:35:09;20.80;;;11.93;;
16506;SDS011;8366;51.020;7.642;2022-12-07T07:37:36;21.37;;;11.57;;
16506;SDS011;8366;51.020;7.642;2022-12-07T07:40:03;21.70;;;12.70;;
16506;SDS011;8366;51.020;7.642;2022-12-07T07:42:30;21.43;;;12.40;;
16506;SDS011;8366;51.020;7.642;2022-12-07T07:44:56;21.57;;;12.37;;
16506;SDS011;8366;51.020;7.642;2022-12-07T07:47:24;21.63;;;12.13;;
16506;SDS011;8366;51.020;7.642;2022-12-07T07:49:51;20.40;;;12.33;;
16506;SDS011;8366;51.020;7.642;2022-12-07T07:52:17;19.90;;;11.50;;
16506;SDS011;8366;51.020;7.642;2022-12-07T07:54:44;21.70;;;12.40;;
16506;SDS011;8366;51.020;7.642;2022-12-07T07:57:10;20.20;;;11.40;;
16506;SDS011;8366;51.020;7.642;2022-12-07T07:59:37;20.60;;;11.93;;
16506;SDS011;8366;51.020;7.642;2022-12-07T08:02:03;19.53;;;10.43;;
16506;SDS011;8366;51.020;7.642;2022-12-07T08:04:31;18.07;;;10.07;;
16506;SDS011;8366;51.020;7.642;2022-12-07T08:06:57;17.33;;;10.83;;
16506;SDS011;8366;51.020;7.642;2022-12-07T08:09:24;18.13;;;9.93;;
16506;SDS011;8366;51.020;7.642;2022-12-07T08:11:50;14.10;;;9.27;;
16506;SDS011;8366;51.020;7.642;2022-12-07T08:14:17;18.20;;;10.00;;
16506;SDS011;8366;51.020;7.642;2022-12-07T08:16:43;13.73;;;9.33;;
16506;SDS011;8366;51.020;7.642;2022-12-07T08:19:10;16.70;;;8.90;;
16506;SDS011;8366;51.020;7.642;2022-12-07T08:21:38;13.87;;;8.70;;
16506;SDS011;8366;51.020;7.642;2022-12-07T08:24:05;15.80;;;9.00;;
16506;SDS011;8366;51.020;7.642;2022-12-07T08:26:31;14.27;;;8.47;;
16506;SDS011;8366;51.020;7.642;2022-12-07T08:28:58;14.03;;;8.40;;
16506;SDS011;8366;51.020;7.642;2022-12-07T08:31:25;13.97;;;8.40;;
16506;SDS011;8366;51.020;7.642;2022-12-07T08:33:52;15.80;;;9.10;;
16506;SDS011;8366;51.020;7.642;2022-12-07T08:36:19;14.20;;;9.00;;
16506;SDS011;8366;51.020;7.642;2022-12-07T08:38:49;15.40;;;9.90;;
16506;SDS011;8366;51.020;7.642;2022-12-07T08:41:15;13.87;;;8.80;;
16506;SDS011;8366;51.020;7.642;2022-12-07T08:43:42;10.43;;;6.37;;
16506;SDS011;8366;51.020;7.642;2022-12-07T08:46:09;11.73;;;7.03;;
16506;SDS011;8366;51.020;7.642;2022-12-07T08:48:38;12.37;;;7.53;;
16506;SDS011;8366;51.020;7.642;2022-12-07T08:51:07;12.97;;;7.47;;
16506;SDS011;8366;51.020;7.642;2022-12-07T08:53:34;11.67;;;7.23;;
16506;SDS011;8366;51.020;7.642;2022-12-07T08:56:03;13.83;;;8.43;;
16506;SDS011;8366;51.020;7.642;2022-12-07T08:58:30;13.17;;;8.57;;
16506;SDS011;8366;51.020;7.642;2022-12-07T09:00:58;10.27;;;7.37;;
16506;SDS011;8366;51.020;7.642;2022-12-07T09:03:24;12.53;;;8.00;;
16506;SDS011;8366;51.020;7.642;2022-12-07T09:05:51;12.17;;;8.17;;
16506;SDS011;8366;51.020;7.642;2022-12-07T09:08:18;13.53;;;8.40;;
16506;SDS011;8366;51.020;7.642;2022-12-07T09:10:45;10.93;;;7.73;;
16506;SDS011;8366;51.020;7.642;2022-12-07T09:13:14;10.37;;;7.17;;
16506;SDS011;8366;51.020;7.642;2022-12-07T09:15:40;13.70;;;7.77;;
16506;SDS011;8366;51.020;7.642;2022-12-07T09:18:07;12.53;;;7.77;;
16506;SDS011;8366;51.020;7.642;2022-12-07T09:20:33;13.07;;;7.00;;
16506;SDS011;8366;51.020;7.642;2022-12-07T09:23:00;10.00;;;6.77;;
16506;SDS011;8366;51.020;7.642;2022-12-07T09:25:26;10.37;;;7.20;;
16506;SDS011;8366;51.020;7.642;2022-12-07T09:27:56;10.60;;;6.87;;
16506;SDS011;8366;51.020;7.642;2022-12-07T09:30:24;13.60;;;7.30;;
16506;SDS011;8366;51.020;7.642;2022-12-07T09:32:52;12.27;;;7.20;;
16506;SDS011;8366;51.020;7.642;2022-12-07T09:35:19;11.00;;;7.37;;
16506;SDS011;8366;51.020;7.642;2022-12-07T09:37:46;10.20;;;6.87;;
16506;SDS011;8366;51.020;7.642;2022-12-07T09:40:12;11.20;;;7.43;;
16506;SDS011;8366;51.020;7.642;2022-12-07T09:42:41;11.90;;;7.10;;
16506;SDS011;8366;51.020;7.642;2022-12-07T09:45:11;15.07;;;7.63;;
16506;SDS011;8366;51.020;7.642;2022-12-07T09:47:41;15.60;;;11.00;;
16506;SDS011;8366;51.020;7.642;2022-12-07T09:50:12;14.50;;;8.73;;
16506;SDS011;8366;51.020;7.642;2022-12-07T09:52:39;12.50;;;8.40;;
16506;SDS011;8366;51.020;7.642;2022-12-07T09:55:09;13.73;;;8.00;;
16506;SDS011;8366;51.020;7.642;2022-12-07T09:57:37;16.13;;;9.80;;
16506;SDS011;8366;51.020;7.642;2022-12-07T10:00:06;17.27;;;9.60;;
16506;SDS011;8366;51.020;7.642;2022-12-07T10:02:37;17.03;;;9.73;;
16506;SDS011;8366;51.020;7.642;2022-12-07T10:05:07;151.53;;;46.27;;
16506;SDS011;8366;51.020;7.642;2022-12-07T10:07:38;17.10;;;10.97;;
16506;SDS011;8366;51.020;7.642;2022-12-07T10:10:09;18.70;;;10.53;;
16506;SDS011;8366;51.020;7.642;2022-12-07T10:12:54;16.03;;;9.83;;
16506;SDS011;8366;51.020;7.642;2022-12-07T10:15:23;20.17;;;10.43;;
16506;SDS011;8366;51.020;7.642;2022-12-07T10:17:50;14.10;;;7.43;;
16506;SDS011;8366;51.020;7.642;2022-12-07T10:20:19;19.37;;;10.57;;
16506;SDS011;8366;51.020;7.642;2022-12-07T10:22:55;37.17;;;18.10;;
16506;SDS011;8366;51.020;7.642;2022-12-07T10:25:27;13.87;;;8.63;;
16506;SDS011;8366;51.020;7.642;2022-12-07T10:27:58;14.80;;;8.97;;
16506;SDS011;8366;51.020;7.642;2022-12-07T10:30:26;18.17;;;9.63;;
16506;SDS011;8366;51.020;7.642;2022-12-07T10:32:52;19.73;;;9.70;;
16506;SDS011;8366;51.020;7.642;2022-12-07T10:35:22;16.17;;;9.47;;
16506;SDS011;8366;51.020;7.642;2022-12-07T10:37:51;15.93;;;9.23;;
16506;SDS011;8366;51.020;7.642;2022-12-07T10:40:24;20.13;;;10.53;;
16506;SDS011;8366;51.020;7.642;2022-12-07T10:43:02;16.63;;;9.47;;
16506;SDS011;8366;51.020;7.642;2022-12-07T10:45:30;17.37;;;9.50;;
16506;SDS011;8366;51.020;7.642;2022-12-07T10:47:59;18.33;;;9.77;;
16506;SDS011;8366;51.020;7.642;2022-12-07T10:50:37;19.10;;;10.57;;
16506;SDS011;8366;51.020;7.642;2022-12-07T10:55:58;16.07;;;7.83;;
16506;SDS011;8366;51.020;7.642;2022-12-07T10:58:37;10.87;;;7.20;;
16506;SDS011;8366;51.020;7.642;2022-12-07T11:01:13;12.67;;;7.87;;
16506;SDS011;8366;51.020;7.642;2022-12-07T11:03:46;11.93;;;6.97;;
16506;SDS011;8366;51.020;7.642;2022-12-07T11:06:22;11.27;;;5.93;;
16506;SDS011;8366;51.020;7.642;2022-12-07T11:09:02;10.33;;;6.67;;
16506;SDS011;8366;51.020;7.642;2022-12-07T11:11:38;9.33;;;6.10;;
16506;SDS011;8366;51.020;7.642;2022-12-07T11:14:11;11.20;;;5.97;;
16506;SDS011;8366;51.020;7.642;2022-12-07T11:16:45;11.97;;;6.33;;
16506;SDS011;8366;51.020;7.642;2022-12-07T11:19:21;11.10;;;5.97;;
16506;SDS011;8366;51.020;7.642;2022-12-07T11:21:57;12.50;;;6.53;;
16506;SDS011;8366;51.020;7.642;2022-12-07T11:24:27;11.23;;;6.20;;
16506;SDS011;8366;51.020;7.642;2022-12-07T11:27:01;10.90;;;6.77;;
16506;SDS011;8366;51.020;7.642;2022-12-07T11:29:39;13.83;;;6.90;;
16506;SDS011;8366;51.020;7.642;2022-12-07T11:32:32;11.67;;;6.70;;
16506;SDS011;8366;51.020;7.642;2022-12-07T11:35:11;14.43;;;6.60;;
16506;SDS011;8366;51.020;7.642;2022-12-07T11:37:42;9.47;;;6.47;;
16506;SDS011;8366;51.020;7.642;2022-12-07T11:40:13;12.77;;;6.90;;
16506;SDS011;8366;51.020;7.642;2022-12-07T11:42:44;12.47;;;7.50;;
16506;SDS011;8366;51.020;7.642;2022-12-07T11:45:13;11.93;;;6.07;;
16506;SDS011;8366;51.020;7.642;2022-12-07T11:47:45;8.73;;;4.63;;
16506;SDS011;8366;51.020;7.642;2022-12-07T11:50:17;14.13;;;6.90;;
16506;SDS011;8366;51.020;7.642;2022-12-07T11:52:53;7.50;;;4.83;;
16506;SDS011;8366;51.020;7.642;2022-12-07T11:55:23;9.93;;;5.87;;
16506;SDS011;8366;51.020;7.642;2022-12-07T11:57:56;12.37;;;5.50;;
16506;SDS011;8366;51.020;7.642;2022-12-07T12:00:26;11.10;;;6.70;;
16506;SDS011;8366;51.020;7.642;2022-12-07T12:02:55;10.63;;;6.60;;
16506;SDS011;8366;51.020;7.642;2022-12-07T12:05:25;10.63;;;6.73;;
16506;SDS011;8366;51.020;7.642;2022-12-07T12:07:54;12.30;;;7.87;;
16506;SDS011;8366;51.020;7.642;2022-12-07T12:10:27;13.07;;;7.30;;
16506;SDS011;8366;51.020;7.642;2022-12-07T12:13:14;8.57;;;6.70;;
16506;SDS011;8366;51.020;7.642;2022-12-07T12:15:57;10.17;;;6.63;;
16506;SDS011;8366;51.020;7.642;2022-12-07T12:18:40;18.87;;;10.20;;
16506;SDS011;8366;51.020;7.642;2022-12-07T12:21:13;10.00;;;7.20;;
16506;SDS011;8366;51.020;7.642;2022-12-07T12:23:44;11.30;;;7.10;;
16506;SDS011;8366;51.020;7.642;2022-12-07T12:26:14;12.37;;;7.50;;
16506;SDS011;8366;51.020;7.642;2022-12-07T12:28:49;11.30;;;7.43;;
16506;SDS011;8366;51.020;7.642;2022-12-07T12:31:29;19.53;;;9.40;;
16506;SDS011;8366;51.020;7.642;2022-12-07T12:34:00;11.83;;;7.70;;
16506;SDS011;8366;51.020;7.642;2022-12-07T12:36:43;11.60;;;7.97;;
16506;SDS011;8366;51.020;7.642;2022-12-07T12:39:13;13.97;;;8.43;;
16506;SDS011;8366;51.020;7.642;2022-12-07T12:41:54;11.80;;;7.70;;
16506;SDS011;8366;51.020;7.642;2022-12-07T12:44:41;10.70;;;6.73;;
16506;SDS011;8366;51.020;7.642;2022-12-07T12:47:39;12.60;;;7.60;;
16506;SDS011;8366;51.020;7.642;2022-12-07T12:50:12;12.27;;;7.97;;
16506;SDS011;8366;51.020;7.642;2022-12-07T12:52:48;10.53;;;7.07;;
16506;SDS011;8366;51.020;7.642;2022-12-07T12:55:20;10.77;;;7.57;;
16506;SDS011;8366;51.020;7.642;2022-12-07T13:04:15;9.67;;;6.10;;
16506;SDS011;8366;51.020;7.642;2022-12-07T13:06:44;13.17;;;7.50;;
16506;SDS011;8366;51.020;7.642;2022-12-07T13:09:17;8.10;;;4.20;;
16506;SDS011;8366;51.020;7.642;2022-12-07T13:11:48;11.70;;;6.40;;
16506;SDS011;8366;51.020;7.642;2022-12-07T13:17:07;6.17;;;3.20;;
16506;SDS011;8366;51.020;7.642;2022-12-07T13:22:34;9.33;;;3.57;;
16506;SDS011;8366;51.020;7.642;2022-12-07T13:25:21;6.80;;;3.80;;
16506;SDS011;8366;51.020;7.642;2022-12-07T13:27:54;13.93;;;4.23;;
16506;SDS011;8366;51.020;7.642;2022-12-07T13:30:23;8.57;;;3.97;;
16506;SDS011;8366;51.020;7.642;2022-12-07T13:32:51;6.13;;;3.63;;
16506;SDS011;8366;51.020;7.642;2022-12-07T13:35:26;8.20;;;4.57;;
16506;SDS011;8366;51.020;7.642;2022-12-07T13:37:54;7.23;;;4.17;;
16506;SDS011;8366;51.020;7.642;2022-12-07T13:40:21;11.80;;;4.47;;
16506;SDS011;8366;51.020;7.642;2022-12-07T13:42:56;8.50;;;5.20;;
16506;SDS011;8366;51.020;7.642;2022-12-07T13:45:24;12.00;;;4.83;;
16506;SDS011;8366;51.020;7.642;2022-12-07T13:48:13;15.27;;;6.40;;
16506;SDS011;8366;51.020;7.642;2022-12-07T13:50:41;14.27;;;8.23;;
16506;SDS011;8366;51.020;7.642;2022-12-07T13:53:11;8.63;;;4.43;;
16506;SDS011;8366;51.020;7.642;2022-12-07T13:55:44;8.47;;;4.57;;
16506;SDS011;8366;51.020;7.642;2022-12-07T13:58:12;10.17;;;4.97;;
16506;SDS011;8366;51.020;7.642;2022-12-07T14:00:39;8.77;;;5.43;;
16506;SDS011;8366;51.020;7.642;2022-12-07T14:03:20;8.40;;;5.27;;
16506;SDS011;8366;51.020;7.642;2022-12-07T14:06:03;9.70;;;6.13;;
16506;SDS011;8366;51.020;7.642;2022-12-07T14:08:33;10.90;;;5.80;;
16506;SDS011;8366;51.020;7.642;2022-12-07T14:11:00;8.10;;;5.77;;
16506;SDS011;8366;51.020;7.642;2022-12-07T14:13:29;11.90;;;6.57;;
16506;SDS011;8366;51.020;7.642;2022-12-07T14:15:58;13.40;;;6.17;;
16506;SDS011;8366;51.020;7.642;2022-12-07T14:18:26;12.17;;;6.47;;
16506;SDS011;8366;51.020;7.642;2022-12-07T14:21:02;11.10;;;6.07;;
16506;SDS011;8366;51.020;7.642;2022-12-07T14:23:29;10.17;;;6.20;;
16506;SDS011;8366;51.020;7.642;2022-12-07T14:26:04;11.10;;;5.80;;
16506;SDS011;8366;51.020;7.642;2022-12-07T14:28:34;11.43;;;5.97;;
16506;SDS011;8366;51.020;7.642;2022-12-07T14:31:02;9.83;;;5.80;;
16506;SDS011;8366;51.020;7.642;2022-12-07T14:33:29;9.30;;;5.30;;
16506;SDS011;8366;51.020;7.642;2022-12-07T14:35:56;9.97;;;5.57;;
16506;SDS011;8366;51.020;7.642;2022-12-07T14:38:24;5.77;;;4.50;;
16506;SDS011;8366;51.020;7.642;2022-12-07T14:40:51;8.73;;;4.90;;
16506;SDS011;8366;51.020;7.642;2022-12-07T14:43:18;13.23;;;5.43;;
16506;SDS011;8366;51.020;7.642;2022-12-07T14:45:46;8.20;;;4.90;;
16506;SDS011;8366;51.020;7.642;2022-12-07T14:48:13;8.10;;;5.13;;
16506;SDS011;8366;51.020;7.642;2022-12-07T14:50:42;8.50;;;5.50;;
16506;SDS011;8366;51.020;7.642;2022-12-07T14:53:10;11.27;;;6.30;;
16506;SDS011;8366;51.020;7.642;2022-12-07T14:55:39;9.10;;;6.00;;
16506;SDS011;8366;51.020;7.642;2022-12-07T14:58:05;10.70;;;6.50;;
16506;SDS011;8366;51.020;7.642;2022-12-07T15:00:32;11.93;;;6.93;;
16506;SDS011;8366;51.020;7.642;2022-12-07T15:03:00;11.30;;;7.33;;
16506;SDS011;8366;51.020;7.642;2022-12-07T15:05:27;10.47;;;7.13;;
16506;SDS011;8366;51.020;7.642;2022-12-07T15:07:53;10.63;;;6.03;;
16506;SDS011;8366;51.020;7.642;2022-12-07T15:10:21;13.60;;;6.40;;
16506;SDS011;8366;51.020;7.642;2022-12-07T15:12:48;12.83;;;6.90;;
16506;SDS011;8366;51.020;7.642;2022-12-07T15:15:15;12.50;;;7.17;;